createdAt,value
2019-01-16T00:00:46.573Z,7.40
2019-01-16T00:03:35.893Z,9.07
2019-01-16T00:06:23.709Z,7.50
2019-01-16T00:09:14.232Z,6.70
2019-01-16T00:12:03.452Z,7.25
2019-01-16T00:14:52.635Z,6.57
2019-01-16T00:17:41.907Z,7.03
2019-01-16T00:20:31.120Z,6.30
2019-01-16T00:23:29.827Z,7.40
2019-01-16T00:26:18.125Z,6.67
2019-01-16T00:29:07.148Z,6.45
2019-01-16T00:31:56.127Z,5.78
2019-01-16T00:34:45.144Z,5.17
2019-01-16T00:37:34.179Z,5.40
2019-01-16T00:40:24.670Z,5.87
2019-01-16T00:43:04.867Z,5.20
2019-01-16T00:45:53.977Z,4.35
2019-01-16T00:48:43.078Z,5.40
2019-01-16T00:51:32.444Z,4.70
2019-01-16T00:54:21.589Z,4.75
2019-01-16T00:57:10.569Z,4.92
2019-01-16T00:59:59.616Z,4.23
2019-01-16T01:02:49.888Z,4.58
2019-01-16T01:05:33.617Z,4.17
2019-01-16T01:08:23.162Z,4.60
2019-01-16T01:11:12.432Z,5.12
2019-01-16T01:14:01.577Z,4.50
2019-01-16T01:16:50.667Z,4.35
2019-01-16T01:19:39.782Z,3.98
2019-01-16T01:22:24.867Z,4.40
2019-01-16T01:25:13.994Z,4.70
2019-01-16T01:28:04.624Z,3.80
2019-01-16T01:30:53.612Z,4.50
2019-01-16T01:33:41.256Z,4.12
2019-01-16T01:36:25.954Z,4.70
2019-01-16T01:39:14.913Z,3.70
2019-01-16T01:42:03.984Z,3.92
2019-01-16T01:44:53.170Z,4.22
2019-01-16T01:47:42.157Z,3.50
2019-01-16T01:50:31.395Z,4.20
2019-01-16T01:53:09.652Z,4.20
2019-01-16T01:55:58.871Z,4.42
2019-01-16T01:58:48.042Z,3.90
2019-01-16T02:01:37.300Z,4.85
2019-01-16T02:04:26.380Z,3.62
2019-01-16T02:07:15.436Z,4.37
2019-01-16T02:10:05.816Z,4.33
2019-01-16T02:12:57.560Z,4.15
2019-01-16T02:15:46.636Z,3.27
2019-01-16T02:18:35.696Z,4.20
2019-01-16T02:21:24.876Z,4.22
2019-01-16T02:24:13.862Z,3.77
2019-01-16T02:27:03.041Z,3.95
2019-01-16T02:29:48.462Z,4.37
2019-01-16T02:32:37.571Z,3.70
2019-01-16T02:35:26.821Z,3.80
2019-01-16T02:38:15.860Z,3.70
2019-01-16T02:40:56.474Z,3.87
2019-01-16T02:43:45.663Z,3.55
2019-01-16T02:46:34.821Z,3.58
2019-01-16T02:49:24.065Z,3.83
2019-01-16T02:52:06.205Z,3.58
2019-01-16T02:54:56.847Z,3.45
2019-01-16T02:57:33.288Z,3.60
2019-01-16T03:00:23.315Z,3.60
2019-01-16T03:03:08.141Z,3.77
2019-01-16T03:05:48.028Z,3.77
2019-01-16T03:08:26.254Z,3.15
2019-01-16T03:11:12.932Z,3.87
2019-01-16T03:14:03.167Z,2.98
2019-01-16T03:16:52.381Z,3.33
2019-01-16T03:19:36.228Z,2.70
2019-01-16T03:22:25.505Z,3.25
2019-01-16T03:25:11.140Z,3.40
2019-01-16T03:27:56.106Z,3.12
2019-01-16T03:30:43.054Z,2.98
2019-01-16T03:33:26.989Z,4.05
2019-01-16T03:36:15.994Z,3.42
2019-01-16T03:39:05.013Z,2.83
2019-01-16T03:41:49.969Z,3.10
2019-01-16T03:44:28.377Z,3.53
2019-01-16T03:47:11.200Z,3.17
2019-01-16T03:50:00.221Z,3.50
2019-01-16T03:52:49.367Z,3.30
2019-01-16T03:55:38.431Z,3.33
2019-01-16T03:58:21.219Z,3.45
2019-01-16T04:01:10.152Z,3.50
2019-01-16T04:03:59.087Z,3.37
2019-01-16T04:06:48.204Z,3.70
2019-01-16T04:09:37.273Z,3.67
2019-01-16T04:12:26.543Z,3.40
2019-01-16T04:15:15.748Z,3.20
2019-01-16T04:18:04.928Z,3.47
2019-01-16T04:20:54.115Z,3.20
2019-01-16T04:23:43.137Z,3.30
2019-01-16T04:26:32.207Z,2.93
2019-01-16T04:29:21.485Z,3.00
2019-01-16T04:32:10.457Z,3.23
2019-01-16T04:34:59.519Z,2.98
2019-01-16T04:37:48.566Z,3.37
2019-01-16T04:40:32.605Z,3.40
2019-01-16T04:43:21.618Z,3.20
2019-01-16T04:46:10.665Z,3.47
2019-01-16T04:48:51.157Z,2.52
2019-01-16T04:51:35.980Z,2.97
2019-01-16T04:54:20.242Z,3.33
2019-01-16T04:57:09.425Z,3.33
2019-01-16T04:59:58.438Z,3.50
2019-01-16T05:02:47.624Z,3.17
2019-01-16T05:05:36.598Z,3.23
2019-01-16T05:08:19.616Z,3.47
2019-01-16T05:11:08.625Z,3.40
2019-01-16T05:13:57.690Z,3.60
2019-01-16T05:16:38.565Z,3.60
2019-01-16T05:19:26.716Z,3.47
2019-01-16T05:22:08.886Z,3.87
2019-01-16T05:24:51.024Z,3.98
2019-01-16T05:27:40.184Z,3.60
2019-01-16T05:30:25.021Z,3.98
2019-01-16T05:33:03.687Z,3.40
2019-01-16T05:35:52.755Z,3.62
2019-01-16T05:38:38.601Z,3.70
2019-01-16T05:41:27.744Z,4.00
2019-01-16T05:44:16.086Z,4.00
2019-01-16T05:46:59.625Z,4.20
2019-01-16T05:49:49.959Z,3.87
2019-01-16T05:52:39.108Z,4.25
2019-01-16T05:55:28.324Z,3.80
2019-01-16T05:58:17.320Z,4.12
2019-01-16T06:01:06.462Z,4.73
2019-01-16T06:03:55.807Z,4.70
2019-01-16T06:06:44.916Z,4.95
2019-01-16T06:09:34.384Z,5.33
2019-01-16T06:12:26.558Z,5.80
2019-01-16T06:15:15.562Z,6.17
2019-01-16T06:18:04.995Z,5.42
2019-01-16T06:20:54.007Z,5.00
2019-01-16T06:23:35.654Z,5.30
2019-01-16T06:26:24.792Z,5.25
2019-01-16T06:29:14.225Z,5.43
2019-01-16T06:32:01.328Z,7.40
2019-01-16T06:34:39.549Z,6.75
2019-01-16T06:37:28.105Z,4.95
2019-01-16T06:40:04.800Z,5.70
2019-01-16T06:42:53.829Z,11.00
2019-01-16T06:45:38.236Z,12.43
2019-01-16T06:48:21.075Z,15.13
2019-01-16T06:51:10.285Z,15.33
2019-01-16T06:53:59.384Z,14.13
2019-01-16T06:56:48.446Z,14.53
2019-01-16T06:59:27.159Z,20.50
2019-01-16T07:02:11.603Z,19.75
2019-01-16T07:05:00.877Z,17.83
2019-01-16T07:07:49.934Z,15.13
2019-01-16T07:10:37.065Z,12.90
2019-01-16T07:13:17.922Z,11.93
2019-01-16T07:16:00.686Z,9.07
2019-01-16T07:18:50.208Z,7.75
2019-01-16T07:21:39.297Z,8.33
2019-01-16T07:24:28.536Z,7.20
2019-01-16T07:27:17.698Z,9.73
2019-01-16T07:30:05.318Z,8.77
2019-01-16T07:32:54.491Z,9.45
2019-01-16T07:35:43.640Z,9.88
2019-01-16T07:38:34.002Z,13.43
2019-01-16T07:41:24.097Z,11.03
2019-01-16T07:44:13.261Z,10.80
2019-01-16T07:47:03.407Z,18.60
2019-01-16T07:49:52.477Z,15.73
2019-01-16T07:52:43.032Z,13.83
2019-01-16T07:55:32.095Z,10.88
2019-01-16T07:58:15.996Z,8.50
2019-01-16T08:01:06.010Z,8.53
2019-01-16T08:03:55.600Z,8.60
2019-01-16T08:06:44.739Z,7.30
2019-01-16T08:09:34.901Z,8.10
2019-01-16T08:12:25.969Z,8.13
2019-01-16T08:15:15.287Z,7.37
2019-01-16T08:17:56.245Z,6.90
2019-01-16T08:20:45.266Z,7.37
2019-01-16T08:23:34.395Z,6.83
2019-01-16T08:26:23.113Z,7.35
2019-01-16T08:29:12.789Z,7.03
2019-01-16T08:32:03.058Z,7.67
2019-01-16T08:34:54.025Z,8.05
2019-01-16T08:37:34.380Z,7.57
2019-01-16T08:40:24.584Z,5.58
2019-01-16T08:43:13.847Z,7.45
2019-01-16T08:45:55.157Z,7.30
2019-01-16T08:48:44.222Z,7.47
2019-01-16T08:51:33.495Z,8.10
2019-01-16T08:54:22.687Z,7.60
2019-01-16T08:57:09.898Z,8.03
2019-01-16T08:59:53.485Z,8.35
2019-01-16T09:02:36.846Z,6.65
2019-01-16T09:05:26.945Z,7.40
2019-01-16T09:08:13.054Z,7.75
2019-01-16T09:11:02.355Z,8.43
2019-01-16T09:13:46.631Z,8.43
2019-01-16T09:16:35.985Z,8.88
2019-01-16T09:19:27.026Z,10.10
2019-01-16T09:22:09.299Z,11.80
2019-01-16T09:25:00.797Z,12.47
2019-01-16T09:27:48.922Z,21.37
2019-01-16T09:30:39.974Z,38.05
2019-01-16T09:33:29.105Z,24.83
2019-01-16T09:36:18.107Z,33.80
2019-01-16T09:39:07.419Z,30.92
2019-01-16T09:41:56.555Z,30.27
2019-01-16T09:44:34.795Z,16.75
2019-01-16T09:47:21.971Z,15.35
2019-01-16T09:50:11.071Z,10.90
2019-01-16T09:53:00.350Z,8.48
2019-01-16T09:55:49.516Z,8.98
2019-01-16T09:58:32.594Z,9.40
2019-01-16T10:01:21.797Z,8.40
2019-01-16T10:04:10.930Z,10.78
2019-01-16T10:07:00.220Z,8.63
2019-01-16T10:09:50.085Z,9.83
2019-01-16T10:12:39.808Z,11.15
2019-01-16T10:15:28.845Z,11.97
2019-01-16T10:18:11.362Z,12.23
2019-01-16T10:20:55.687Z,13.10
2019-01-16T10:23:38.031Z,11.90
2019-01-16T10:26:27.208Z,13.18
2019-01-16T10:29:16.963Z,14.17
2019-01-16T10:32:06.623Z,15.50
2019-01-16T10:34:48.804Z,13.63
2019-01-16T10:37:29.997Z,15.80
2019-01-16T10:40:16.267Z,15.30
2019-01-16T10:42:57.595Z,17.80
2019-01-16T10:45:46.651Z,16.35
2019-01-16T10:48:37.012Z,16.57
2019-01-16T10:51:22.412Z,16.47
2019-01-16T10:54:03.014Z,17.05
2019-01-16T10:56:53.418Z,18.23
2019-01-16T10:59:41.116Z,17.67
2019-01-16T11:02:30.511Z,18.75
2019-01-16T11:05:09.555Z,17.67
2019-01-16T11:07:58.759Z,18.70
2019-01-16T11:10:47.817Z,18.40
2019-01-16T11:13:33.184Z,12.15
2019-01-16T11:16:22.278Z,17.03
2019-01-16T11:19:11.477Z,16.87
2019-01-16T11:22:00.619Z,17.05
2019-01-16T11:24:49.815Z,15.20
2019-01-16T11:27:32.999Z,18.23
2019-01-16T11:30:22.236Z,17.65
2019-01-16T11:33:00.624Z,15.35
2019-01-16T11:35:45.239Z,15.33
2019-01-16T11:38:34.500Z,17.23
2019-01-16T11:41:23.815Z,15.28
2019-01-16T11:44:13.988Z,15.60
2019-01-16T11:47:03.160Z,18.60
2019-01-16T11:49:52.365Z,17.10
2019-01-16T11:52:41.410Z,17.67
2019-01-16T11:55:30.788Z,17.50
2019-01-16T11:58:20.486Z,15.23
2019-01-16T12:01:11.167Z,14.65
2019-01-16T12:04:12.419Z,15.05
2019-01-16T12:07:01.623Z,15.10
2019-01-16T12:09:50.952Z,13.53
2019-01-16T12:12:34.633Z,14.68
2019-01-16T12:15:25.039Z,15.00
2019-01-16T12:18:14.497Z,16.82
2019-01-16T12:21:03.673Z,17.10
2019-01-16T12:23:49.996Z,14.18
2019-01-16T12:26:39.388Z,12.80
2019-01-16T12:29:21.799Z,13.55
2019-01-16T12:32:12.986Z,12.23
2019-01-16T12:35:02.259Z,12.05
2019-01-16T12:37:42.038Z,12.55
2019-01-16T12:40:32.230Z,12.73
2019-01-16T12:43:23.882Z,13.00
2019-01-16T12:46:13.019Z,13.08
2019-01-16T12:49:02.024Z,14.15
2019-01-16T12:51:51.265Z,14.50
2019-01-16T12:54:40.428Z,13.20
2019-01-16T12:57:31.070Z,10.97
2019-01-16T13:00:20.071Z,12.43
2019-01-16T13:03:05.203Z,11.65
2019-01-16T13:05:48.914Z,12.50
2019-01-16T13:08:31.950Z,11.22
2019-01-16T13:11:21.074Z,10.53
2019-01-16T13:14:10.610Z,10.25
2019-01-16T13:16:59.775Z,10.05
2019-01-16T13:19:51.149Z,11.22
2019-01-16T13:22:29.831Z,14.68
2019-01-16T13:25:18.973Z,15.60
2019-01-16T13:28:08.098Z,15.20
2019-01-16T13:30:57.290Z,14.93
2019-01-16T13:33:36.169Z,16.02
2019-01-16T13:36:18.350Z,14.05
2019-01-16T13:38:56.254Z,16.60
2019-01-16T13:41:40.031Z,16.57
2019-01-16T13:44:29.016Z,18.98
2019-01-16T13:47:14.852Z,24.57
2019-01-16T13:49:56.130Z,22.47
2019-01-16T13:52:47.153Z,19.50
2019-01-16T13:55:36.271Z,20.40
2019-01-16T13:58:25.510Z,18.73
2019-01-16T14:01:15.220Z,18.67
2019-01-16T14:04:04.392Z,15.63
2019-01-16T14:06:53.491Z,16.17
2019-01-16T14:09:42.665Z,19.35
2019-01-16T14:12:31.930Z,18.30
2019-01-16T14:15:34.787Z,17.00
2019-01-16T14:18:26.510Z,17.35
2019-01-16T14:21:15.791Z,19.20
2019-01-16T14:23:58.659Z,19.40
2019-01-16T14:26:48.358Z,15.30
2019-01-16T14:29:37.514Z,15.60
2019-01-16T14:32:26.975Z,18.80
2019-01-16T14:35:16.076Z,19.82
2019-01-16T14:38:05.345Z,15.25
2019-01-16T14:40:54.607Z,13.72
2019-01-16T14:43:37.740Z,19.12
2019-01-16T14:46:20.435Z,19.87
2019-01-16T14:49:09.646Z,21.97
2019-01-16T14:51:59.736Z,20.90
2019-01-16T14:54:49.059Z,22.25
2019-01-16T14:57:38.407Z,20.88
2019-01-16T15:00:28.254Z,23.18
2019-01-16T15:03:17.395Z,22.45
2019-01-16T15:06:05.559Z,21.20
2019-01-16T15:08:52.402Z,22.50
2019-01-16T15:11:41.515Z,22.77
2019-01-16T15:14:20.384Z,23.80
2019-01-16T15:17:07.135Z,25.00
2019-01-16T15:19:56.314Z,21.30
2019-01-16T15:22:45.678Z,18.70
2019-01-16T15:25:34.966Z,24.15
2019-01-16T15:28:24.243Z,21.48
2019-01-16T15:31:13.556Z,26.60
2019-01-16T15:33:52.130Z,29.82
2019-01-16T15:36:41.431Z,28.80
2019-01-16T15:39:22.769Z,28.70
2019-01-16T15:42:12.071Z,29.67
2019-01-16T15:44:54.881Z,26.70
2019-01-16T15:47:35.838Z,29.60
2019-01-16T15:50:25.994Z,29.10
2019-01-16T15:53:15.234Z,25.30
2019-01-16T15:56:00.834Z,28.70
2019-01-16T15:58:50.274Z,27.50
2019-01-16T16:01:39.596Z,24.27
2019-01-16T16:04:19.116Z,25.15
2019-01-16T16:07:08.323Z,26.68
2019-01-16T16:09:57.727Z,25.07
2019-01-16T16:12:46.923Z,27.67
2019-01-16T16:15:35.276Z,28.27
2019-01-16T16:18:24.609Z,26.90
2019-01-16T16:21:06.679Z,23.12
2019-01-16T16:23:45.903Z,26.90
2019-01-16T16:26:35.195Z,26.05
2019-01-16T16:29:26.167Z,26.57
2019-01-16T16:32:15.488Z,28.77
2019-01-16T16:35:25.357Z,26.05
2019-01-16T16:38:21.105Z,23.40
2019-01-16T16:41:25.367Z,22.37
2019-01-16T16:44:46.893Z,26.68
2019-01-16T16:48:22.250Z,28.57
2019-01-16T16:51:44.400Z,24.63
2019-01-16T16:55:23.050Z,23.42
2019-01-16T16:58:07.831Z,24.30
2019-01-16T17:01:31.971Z,24.77
2019-01-16T17:05:27.972Z,23.32
2019-01-16T17:09:12.080Z,24.70
2019-01-16T17:13:01.621Z,18.15
2019-01-16T17:16:42.920Z,27.35
2019-01-16T17:20:40.855Z,28.20
2019-01-16T17:24:27.295Z,35.43
2019-01-16T17:28:22.794Z,23.50
2019-01-16T17:32:11.794Z,34.90
2019-01-16T17:36:07.951Z,27.27
2019-01-16T17:39:02.486Z,30.57
2019-01-16T17:41:41.297Z,31.00
2019-01-16T17:44:31.096Z,26.42
2019-01-16T17:47:44.526Z,25.52
2019-01-16T17:51:45.056Z,27.05
2019-01-16T17:55:30.097Z,31.10
2019-01-16T18:01:21.955Z,29.87
2019-01-16T18:04:16.206Z,32.23
2019-01-16T18:07:05.393Z,29.65
2019-01-16T18:09:53.179Z,30.55
2019-01-16T18:12:42.358Z,29.55
2019-01-16T18:15:31.777Z,30.23
2019-01-16T18:18:21.878Z,26.90
2019-01-16T18:21:03.939Z,29.77
2019-01-16T18:23:43.506Z,28.98
2019-01-16T18:26:38.744Z,29.10
2019-01-16T18:29:23.777Z,18.67
2019-01-16T18:32:13.257Z,31.20
2019-01-16T18:35:02.696Z,23.00
2019-01-16T18:37:54.759Z,26.48
2019-01-16T18:40:51.139Z,29.32
2019-01-16T18:44:09.937Z,28.90
2019-01-16T18:47:37.175Z,31.53
2019-01-16T18:50:47.488Z,21.42
2019-01-16T18:53:41.162Z,28.50
2019-01-16T18:56:30.708Z,33.00
2019-01-16T18:59:20.077Z,28.92
2019-01-16T19:02:11.530Z,31.68
2019-01-16T19:04:55.678Z,31.02
2019-01-16T19:07:44.968Z,29.60
2019-01-16T19:10:27.567Z,28.40
2019-01-16T19:13:16.839Z,29.20
2019-01-16T19:16:01.647Z,28.02
2019-01-16T19:18:51.084Z,24.02
2019-01-16T19:21:36.656Z,30.72
2019-01-16T19:24:26.151Z,31.30
2019-01-16T19:27:15.559Z,32.17
2019-01-16T19:30:04.872Z,30.53
2019-01-16T19:32:49.556Z,25.43
2019-01-16T19:35:38.806Z,26.10
2019-01-16T19:38:28.092Z,24.05
2019-01-16T19:41:17.401Z,20.82
2019-01-16T19:44:07.384Z,35.33
2019-01-16T19:46:52.430Z,32.45
2019-01-16T19:49:41.677Z,28.30
2019-01-16T19:52:31.097Z,30.97
2019-01-16T19:55:21.921Z,23.32
2019-01-16T19:58:11.144Z,30.92
2019-01-16T20:00:53.280Z,31.00
2019-01-16T20:03:42.736Z,30.57
2019-01-16T20:06:31.956Z,28.20
2019-01-16T20:09:21.336Z,29.52
2019-01-16T20:12:12.716Z,27.85
2019-01-16T20:14:49.937Z,28.25
2019-01-16T20:17:36.157Z,21.35
2019-01-16T20:20:24.966Z,28.27
2019-01-16T20:23:14.357Z,30.62
2019-01-16T20:26:04.640Z,29.53
2019-01-16T20:28:50.892Z,31.05
2019-01-16T20:31:40.210Z,29.85
2019-01-16T20:34:25.315Z,26.47
2019-01-16T20:37:15.312Z,28.03
2019-01-16T20:40:04.593Z,30.77
2019-01-16T20:42:54.055Z,31.57
2019-01-16T20:45:43.335Z,28.65
2019-01-16T20:48:41.764Z,30.60
2019-01-16T20:51:32.742Z,29.65
2019-01-16T20:54:22.051Z,30.30
2019-01-16T20:57:03.677Z,31.82
2019-01-16T20:59:56.597Z,21.30
2019-01-16T21:02:45.971Z,32.60
2019-01-16T21:06:16.079Z,34.53
2019-01-16T21:09:46.398Z,31.07
2019-01-16T21:13:19.266Z,29.67
2019-01-16T21:16:35.680Z,31.70
2019-01-16T21:19:59.684Z,25.08
2019-01-16T21:23:29.146Z,28.85
2019-01-16T21:26:35.267Z,30.10
2019-01-16T21:29:39.256Z,30.48
2019-01-16T21:32:35.249Z,27.37
2019-01-16T21:35:39.045Z,18.13
2019-01-16T21:38:18.477Z,26.63
2019-01-16T21:41:11.275Z,27.20
2019-01-16T21:44:04.448Z,29.23
2019-01-16T21:46:46.147Z,31.77
2019-01-16T21:49:30.636Z,30.62
2019-01-16T21:52:20.149Z,27.80
2019-01-16T21:54:57.003Z,29.82
2019-01-16T21:57:46.204Z,27.03
2019-01-16T22:00:36.544Z,23.67
2019-01-16T22:03:26.437Z,29.50
2019-01-16T22:06:15.897Z,27.50
2019-01-16T22:09:05.206Z,24.97
2019-01-16T22:11:54.837Z,26.68
2019-01-16T22:14:34.191Z,27.85
2019-01-16T22:17:23.566Z,25.70
2019-01-16T22:20:12.952Z,20.92
2019-01-16T22:22:58.240Z,27.48
2019-01-16T22:25:40.597Z,18.37
2019-01-16T22:28:27.770Z,25.92
2019-01-16T22:31:17.004Z,25.07
2019-01-16T22:34:06.254Z,19.82
2019-01-16T22:36:56.159Z,24.65
2019-01-16T22:39:45.567Z,22.15
2019-01-16T22:42:41.123Z,21.70
2019-01-16T22:45:43.443Z,25.00
2019-01-16T22:48:35.406Z,21.90
2019-01-16T22:51:24.724Z,23.20
2019-01-16T22:54:13.916Z,26.35
2019-01-16T22:56:58.122Z,25.90
2019-01-16T22:59:47.315Z,18.60
2019-01-16T23:02:36.517Z,21.45
2019-01-16T23:05:26.021Z,22.77
2019-01-16T23:08:05.514Z,20.37
2019-01-16T23:10:52.276Z,19.45
2019-01-16T23:13:41.268Z,14.55
2019-01-16T23:16:30.716Z,20.02
2019-01-16T23:19:21.416Z,13.35
2019-01-16T23:22:10.434Z,22.57
2019-01-16T23:24:56.988Z,16.93
2019-01-16T23:27:46.496Z,20.90
2019-01-16T23:30:28.292Z,25.08
2019-01-16T23:33:17.451Z,12.30
2019-01-16T23:35:55.119Z,19.57
2019-01-16T23:38:43.026Z,19.02
2019-01-16T23:41:32.316Z,19.37
2019-01-16T23:44:21.554Z,17.17
2019-01-16T23:47:05.928Z,17.67
2019-01-16T23:49:55.096Z,18.15
2019-01-16T23:52:33.845Z,18.73
2019-01-16T23:55:23.495Z,15.83
2019-01-16T23:58:01.489Z,19.33
